FIN6PZ LSGG-EFHK
Flight info
| Callsign | FIN6PZ |
|---|---|
| Flight time | 2h 29m |
| Altitude | 35000 |
| Route | SOSAL N871 KORED DCT BERSU DCT DITON DCT LOKTA/N0437F370 DCT TIKNI DCT ROBEL DCT TOPDI DCT BODLA DCT PENOR DCT ALAMI DCT OKEVU DCT EVADI Y370 DIVAM |
| Aircraft | A319/M-SDE1E2E3FGIJ1M1RWXYZ/LB1 |
Departure
| Time | 2026-05-05 05:10 |
|---|---|
| Airport | Geneva International Airport (LSGG) |
Arrival
| Time | 2026-05-05 07:39 |
|---|---|
| Airport | Helsinki Vantaa Airport (EFHK) |
| Time | Latitude | Longitude | Altitude | Speed | Heading |
|---|---|---|---|---|---|
| 2026-05-05 04:47 | 46.23341 | 6.10660 | 1402 ft | 0 kts | 270° |
| 2026-05-05 05:06 | 46.23341 | 6.10656 | 1393 ft | 2 kts | 270° |
| 2026-05-05 05:06 | 46.23341 | 6.10620 | 1397 ft | 5 kts | 270° |
| 2026-05-05 05:06 | 46.23335 | 6.10556 | 1401 ft | 8 kts | 248° |
| 2026-05-05 05:06 | 46.23294 | 6.10488 | 1397 ft | 10 kts | 225° |
| 2026-05-05 05:07 | 46.23242 | 6.10411 | 1398 ft | 11 kts | 225° |
| 2026-05-05 05:07 | 46.23191 | 6.10336 | 1396 ft | 10 kts | 225° |
| 2026-05-05 05:07 | 46.23139 | 6.10255 | 1396 ft | 14 kts | 230° |
| 2026-05-05 05:07 | 46.23069 | 6.10147 | 1394 ft | 15 kts | 225° |
| 2026-05-05 05:08 | 46.22997 | 6.10042 | 1395 ft | 15 kts | 225° |
| 2026-05-05 05:08 | 46.22930 | 6.09937 | 1399 ft | 13 kts | 239° |
| 2026-05-05 05:08 | 46.22934 | 6.09833 | 1404 ft | 7 kts | 288° |
| 2026-05-05 05:08 | 46.22947 | 6.09779 | 1408 ft | 5 kts | 288° |
| 2026-05-05 05:09 | 46.22968 | 6.09727 | 1411 ft | 7 kts | 316° |
| 2026-05-05 05:09 | 46.23005 | 6.09721 | 1415 ft | 4 kts | 28° |
| 2026-05-05 05:09 | 46.23033 | 6.09762 | 1411 ft | 10 kts | 45° |
| 2026-05-05 05:09 | 46.23225 | 6.10044 | 1407 ft | 77 kts | 45° |
| 2026-05-05 05:10 | 46.23757 | 6.10826 | 1380 ft | 139 kts | 45° |
| 2026-05-05 05:10 | 46.24518 | 6.11954 | 1654 ft | 162 kts | 46° |
| 2026-05-05 05:10 | 46.25297 | 6.13124 | 2327 ft | 162 kts | 46° |
| 2026-05-05 05:10 | 46.26107 | 6.14310 | 2845 ft | 175 kts | 45° |
| 2026-05-05 05:11 | 46.27017 | 6.15641 | 3187 ft | 197 kts | 46° |
| 2026-05-05 05:11 | 46.28046 | 6.17148 | 3507 ft | 223 kts | 46° |
| 2026-05-05 05:11 | 46.29194 | 6.18832 | 3952 ft | 247 kts | 46° |
| 2026-05-05 05:11 | 46.30449 | 6.20679 | 4575 ft | 264 kts | 46° |
| 2026-05-05 05:12 | 46.31750 | 6.22601 | 5446 ft | 271 kts | 47° |
| 2026-05-05 05:12 | 46.33081 | 6.24567 | 6338 ft | 276 kts | 48° |
| 2026-05-05 05:12 | 46.34443 | 6.26579 | 7164 ft | 283 kts | 48° |
| 2026-05-05 05:12 | 46.35806 | 6.28666 | 7990 ft | 288 kts | 53° |
| 2026-05-05 05:13 | 46.36897 | 6.31123 | 8832 ft | 292 kts | 66° |
| 2026-05-05 05:13 | 46.37594 | 6.33903 | 9670 ft | 296 kts | 77° |
| 2026-05-05 05:13 | 46.38166 | 6.36808 | 10399 ft | 306 kts | 77° |
| 2026-05-05 05:13 | 46.38769 | 6.39851 | 10711 ft | 330 kts | 76° |
| 2026-05-05 05:14 | 46.39423 | 6.43127 | 11184 ft | 344 kts | 76° |
| 2026-05-05 05:14 | 46.40099 | 6.46486 | 11924 ft | 350 kts | 76° |
| 2026-05-05 05:14 | 46.40785 | 6.49894 | 12677 ft | 355 kts | 76° |
| 2026-05-05 05:14 | 46.41481 | 6.53357 | 13414 ft | 361 kts | 76° |
| 2026-05-05 05:15 | 46.42184 | 6.56878 | 14095 ft | 366 kts | 76° |
| 2026-05-05 05:15 | 46.42892 | 6.60438 | 14749 ft | 370 kts | 75° |
| 2026-05-05 05:15 | 46.43607 | 6.64038 | 15427 ft | 373 kts | 75° |
| 2026-05-05 05:15 | 46.44561 | 6.67556 | 16084 ft | 378 kts | 64° |
| 2026-05-05 05:16 | 46.45978 | 6.70798 | 16755 ft | 383 kts | 52° |
| 2026-05-05 05:16 | 46.47669 | 6.73804 | 17429 ft | 386 kts | 51° |
| 2026-05-05 05:16 | 46.49372 | 6.76837 | 18106 ft | 390 kts | 51° |
| 2026-05-05 05:16 | 46.51086 | 6.79909 | 18706 ft | 393 kts | 51° |
| 2026-05-05 05:17 | 46.52807 | 6.83010 | 19293 ft | 396 kts | 52° |
| 2026-05-05 05:17 | 46.54538 | 6.86140 | 19887 ft | 399 kts | 52° |
| 2026-05-05 05:17 | 46.56282 | 6.89295 | 20420 ft | 404 kts | 53° |
| 2026-05-05 05:17 | 46.58056 | 6.92496 | 20914 ft | 409 kts | 52° |
| 2026-05-05 05:18 | 46.59855 | 6.95729 | 21466 ft | 413 kts | 52° |
| 2026-05-05 05:18 | 46.61669 | 6.98980 | 22036 ft | 416 kts | 52° |
| 2026-05-05 05:18 | 46.63496 | 7.02262 | 22605 ft | 419 kts | 52° |
| 2026-05-05 05:18 | 46.65309 | 7.05525 | 23169 ft | 422 kts | 52° |
| 2026-05-05 05:19 | 46.67157 | 7.08859 | 23678 ft | 425 kts | 53° |
| 2026-05-05 05:19 | 46.69015 | 7.12216 | 24121 ft | 427 kts | 53° |
| 2026-05-05 05:19 | 46.70886 | 7.15602 | 24564 ft | 430 kts | 53° |
| 2026-05-05 05:19 | 46.72765 | 7.19006 | 24996 ft | 433 kts | 53° |
| 2026-05-05 05:20 | 46.74657 | 7.22438 | 25425 ft | 435 kts | 53° |
| 2026-05-05 05:20 | 46.76555 | 7.25890 | 25861 ft | 437 kts | 53° |
| 2026-05-05 05:20 | 46.78461 | 7.29360 | 26289 ft | 440 kts | 53° |
| 2026-05-05 05:20 | 46.80380 | 7.32858 | 26697 ft | 443 kts | 53° |
| 2026-05-05 05:21 | 46.82310 | 7.36383 | 27057 ft | 446 kts | 53° |
| 2026-05-05 05:21 | 46.84255 | 7.39942 | 27389 ft | 451 kts | 53° |
| 2026-05-05 05:21 | 46.86223 | 7.43538 | 27783 ft | 454 kts | 53° |
| 2026-05-05 05:21 | 46.88200 | 7.47158 | 28200 ft | 457 kts | 53° |
| 2026-05-05 05:22 | 46.90188 | 7.50808 | 28589 ft | 460 kts | 53° |
| 2026-05-05 05:22 | 46.92182 | 7.54481 | 28976 ft | 463 kts | 54° |
| 2026-05-05 05:22 | 46.94184 | 7.58179 | 29357 ft | 465 kts | 53° |
| 2026-05-05 05:22 | 46.96198 | 7.61904 | 29739 ft | 468 kts | 54° |
| 2026-05-05 05:23 | 46.98225 | 7.65650 | 30100 ft | 470 kts | 54° |
| 2026-05-05 05:23 | 47.00260 | 7.69415 | 30397 ft | 473 kts | 54° |
| 2026-05-05 05:23 | 47.02304 | 7.73205 | 30680 ft | 475 kts | 54° |
| 2026-05-05 05:23 | 47.04360 | 7.77017 | 30973 ft | 478 kts | 54° |
| 2026-05-05 05:24 | 47.06400 | 7.80801 | 31261 ft | 481 kts | 54° |
| 2026-05-05 05:24 | 47.08505 | 7.84711 | 31549 ft | 483 kts | 54° |
| 2026-05-05 05:24 | 47.10554 | 7.88520 | 31936 ft | 482 kts | 54° |
| 2026-05-05 05:24 | 47.12631 | 7.92390 | 32335 ft | 482 kts | 54° |
| 2026-05-05 05:25 | 47.14551 | 7.96411 | 32698 ft | 480 kts | 61° |
| 2026-05-05 05:25 | 47.16327 | 8.00565 | 33081 ft | 480 kts | 62° |
| 2026-05-05 05:25 | 47.18101 | 8.04728 | 33468 ft | 480 kts | 62° |
| 2026-05-05 05:25 | 47.19870 | 8.08884 | 33864 ft | 480 kts | 62° |
| 2026-05-05 05:26 | 47.21641 | 8.13051 | 34212 ft | 480 kts | 62° |
| 2026-05-05 05:26 | 47.23407 | 8.17212 | 34573 ft | 479 kts | 62° |
| 2026-05-05 05:26 | 47.25170 | 8.21370 | 34937 ft | 478 kts | 61° |
| 2026-05-05 05:26 | 47.26928 | 8.25525 | 35278 ft | 477 kts | 61° |
| 2026-05-05 05:27 | 47.28750 | 8.29605 | 35620 ft | 478 kts | 55° |
| 2026-05-05 05:27 | 47.30941 | 8.33298 | 35913 ft | 479 kts | 45° |
| 2026-05-05 05:27 | 47.36277 | 8.39161 | 36538 ft | 479 kts | 33° |
| 2026-05-05 05:28 | 47.39060 | 8.41839 | 36838 ft | 478 kts | 33° |
| 2026-05-05 05:28 | 47.41839 | 8.44528 | 36914 ft | 476 kts | 33° |
| 2026-05-05 05:28 | 47.47349 | 8.49884 | 36919 ft | 473 kts | 33° |
| 2026-05-05 05:29 | 47.52832 | 8.55222 | 36920 ft | 471 kts | 33° |
| 2026-05-05 05:29 | 47.58306 | 8.60551 | 36920 ft | 470 kts | 33° |
| 2026-05-05 05:30 | 47.63771 | 8.65890 | 36921 ft | 471 kts | 33° |
| 2026-05-05 05:30 | 47.69230 | 8.71242 | 36926 ft | 470 kts | 33° |
| 2026-05-05 05:31 | 47.74655 | 8.76553 | 36923 ft | 470 kts | 34° |
| 2026-05-05 05:31 | 47.80104 | 8.81925 | 36918 ft | 470 kts | 34° |
| 2026-05-05 05:32 | 47.85546 | 8.87300 | 36909 ft | 469 kts | 34° |
| 2026-05-05 05:32 | 47.90982 | 8.92679 | 36887 ft | 469 kts | 34° |
| 2026-05-05 05:33 | 47.96428 | 8.98063 | 36887 ft | 470 kts | 34° |
| 2026-05-05 05:33 | 48.01867 | 9.03472 | 36888 ft | 470 kts | 34° |
| 2026-05-05 05:34 | 48.07307 | 9.08895 | 36888 ft | 470 kts | 34° |
| 2026-05-05 05:34 | 48.12745 | 9.14347 | 36894 ft | 471 kts | 34° |
| 2026-05-05 05:35 | 48.18604 | 9.18641 | 36886 ft | 470 kts | 16° |
| 2026-05-05 05:35 | 48.24975 | 9.20723 | 36885 ft | 469 kts | 9° |
| 2026-05-05 05:36 | 48.31385 | 9.22603 | 36890 ft | 470 kts | 9° |
| 2026-05-05 05:36 | 48.37798 | 9.24505 | 36890 ft | 470 kts | 9° |
| 2026-05-05 05:37 | 48.44213 | 9.26421 | 36884 ft | 470 kts | 9° |
| 2026-05-05 05:37 | 48.50635 | 9.28333 | 36884 ft | 470 kts | 9° |
| 2026-05-05 05:38 | 48.57052 | 9.30249 | 36884 ft | 470 kts | 9° |
| 2026-05-05 05:38 | 48.63432 | 9.32150 | 36886 ft | 470 kts | 9° |
| 2026-05-05 05:39 | 48.69855 | 9.34071 | 36888 ft | 470 kts | 9° |
| 2026-05-05 05:39 | 48.76273 | 9.36008 | 36893 ft | 471 kts | 9° |
| 2026-05-05 05:40 | 48.82694 | 9.37953 | 36883 ft | 470 kts | 9° |
| 2026-05-05 05:40 | 48.89117 | 9.39889 | 36884 ft | 471 kts | 9° |
| 2026-05-05 05:41 | 48.95544 | 9.41826 | 36893 ft | 471 kts | 9° |
| 2026-05-05 05:41 | 49.01967 | 9.43773 | 36895 ft | 471 kts | 9° |
| 2026-05-05 05:42 | 49.08393 | 9.45732 | 36893 ft | 471 kts | 9° |
| 2026-05-05 05:42 | 49.14823 | 9.47703 | 36900 ft | 471 kts | 9° |
| 2026-05-05 05:43 | 49.21207 | 9.49669 | 36894 ft | 471 kts | 9° |
| 2026-05-05 05:43 | 49.27639 | 9.51640 | 36892 ft | 471 kts | 9° |
| 2026-05-05 05:44 | 49.34074 | 9.53614 | 36891 ft | 471 kts | 9° |
| 2026-05-05 05:44 | 49.40504 | 9.55603 | 36896 ft | 472 kts | 9° |
| 2026-05-05 05:45 | 49.46935 | 9.57608 | 36894 ft | 472 kts | 9° |
| 2026-05-05 05:45 | 49.53369 | 9.59606 | 36893 ft | 472 kts | 9° |
| 2026-05-05 05:46 | 49.59807 | 9.61598 | 36901 ft | 472 kts | 8° |
| 2026-05-05 05:46 | 49.66245 | 9.63597 | 36893 ft | 472 kts | 8° |
| 2026-05-05 05:47 | 49.72682 | 9.65617 | 36894 ft | 472 kts | 8° |
| 2026-05-05 05:47 | 49.79121 | 9.67643 | 36900 ft | 472 kts | 8° |
| 2026-05-05 05:48 | 49.85520 | 9.69653 | 36897 ft | 473 kts | 8° |
| 2026-05-05 05:48 | 49.91973 | 9.71691 | 36896 ft | 473 kts | 8° |
| 2026-05-05 05:49 | 49.98421 | 9.73736 | 36899 ft | 473 kts | 8° |
| 2026-05-05 05:49 | 50.04872 | 9.75785 | 36907 ft | 473 kts | 7° |
| 2026-05-05 05:50 | 50.11319 | 9.77826 | 36908 ft | 473 kts | 7° |
| 2026-05-05 05:50 | 50.16678 | 9.79531 | 36907 ft | 473 kts | 7° |
| 2026-05-05 05:51 | 50.23130 | 9.81593 | 36910 ft | 473 kts | 8° |
| 2026-05-05 05:51 | 50.29578 | 9.83677 | 36921 ft | 473 kts | 7° |
| 2026-05-05 05:52 | 50.36022 | 9.85751 | 36917 ft | 473 kts | 7° |
| 2026-05-05 05:52 | 50.42250 | 9.89188 | 36911 ft | 480 kts | 26° |
| 2026-05-05 05:53 | 50.47749 | 9.95070 | 36927 ft | 482 kts | 34° |
| 2026-05-05 05:53 | 50.53170 | 10.01272 | 36926 ft | 482 kts | 34° |
| 2026-05-05 05:54 | 50.58597 | 10.07469 | 36926 ft | 482 kts | 34° |
| 2026-05-05 05:54 | 50.64020 | 10.13675 | 36926 ft | 482 kts | 34° |
| 2026-05-05 05:55 | 50.69436 | 10.19905 | 36923 ft | 482 kts | 34° |
| 2026-05-05 05:55 | 50.74840 | 10.26155 | 36927 ft | 482 kts | 34° |
| 2026-05-05 05:56 | 50.80243 | 10.32424 | 36924 ft | 482 kts | 34° |
| 2026-05-05 05:56 | 50.85644 | 10.38716 | 36910 ft | 482 kts | 34° |
| 2026-05-05 05:57 | 50.90816 | 10.45463 | 36929 ft | 484 kts | 46° |
| 2026-05-05 05:57 | 50.95255 | 10.53499 | 36934 ft | 484 kts | 48° |
| 2026-05-05 05:58 | 50.99675 | 10.61559 | 36937 ft | 484 kts | 48° |
| 2026-05-05 05:58 | 51.04094 | 10.69629 | 36936 ft | 484 kts | 48° |
| 2026-05-05 05:59 | 51.08499 | 10.77718 | 36953 ft | 484 kts | 48° |
| 2026-05-05 05:59 | 51.12865 | 10.85764 | 36947 ft | 483 kts | 48° |
| 2026-05-05 06:00 | 51.17255 | 10.93866 | 36942 ft | 482 kts | 48° |
| 2026-05-05 06:00 | 51.21630 | 11.01972 | 36919 ft | 482 kts | 48° |
| 2026-05-05 06:01 | 51.25998 | 11.10077 | 36932 ft | 482 kts | 48° |
| 2026-05-05 06:01 | 51.30354 | 11.18208 | 36944 ft | 481 kts | 49° |
| 2026-05-05 06:02 | 51.34694 | 11.26340 | 36939 ft | 480 kts | 49° |
| 2026-05-05 06:02 | 51.39022 | 11.34476 | 36933 ft | 480 kts | 49° |
| 2026-05-05 06:03 | 51.43349 | 11.42606 | 36935 ft | 479 kts | 49° |
| 2026-05-05 06:03 | 51.47663 | 11.50761 | 36932 ft | 479 kts | 49° |
| 2026-05-05 06:04 | 51.51969 | 11.58917 | 36937 ft | 479 kts | 49° |
| 2026-05-05 06:04 | 51.56238 | 11.67039 | 36921 ft | 479 kts | 49° |
| 2026-05-05 06:05 | 51.60537 | 11.75223 | 36926 ft | 478 kts | 49° |
| 2026-05-05 06:05 | 51.64817 | 11.83406 | 36922 ft | 478 kts | 49° |
| 2026-05-05 06:06 | 51.69093 | 11.91612 | 36933 ft | 478 kts | 49° |
| 2026-05-05 06:06 | 51.73359 | 11.99827 | 36930 ft | 478 kts | 49° |
| 2026-05-05 06:07 | 51.77622 | 12.08061 | 36924 ft | 478 kts | 49° |
| 2026-05-05 06:07 | 51.81879 | 12.16315 | 36921 ft | 478 kts | 49° |
| 2026-05-05 06:08 | 51.86495 | 12.23996 | 36911 ft | 476 kts | 40° |
| 2026-05-05 06:08 | 51.91404 | 12.31201 | 36905 ft | 476 kts | 40° |
| 2026-05-05 06:09 | 51.96272 | 12.38385 | 36912 ft | 477 kts | 40° |
| 2026-05-05 06:09 | 52.01168 | 12.45638 | 36899 ft | 477 kts | 41° |
| 2026-05-05 06:10 | 52.06063 | 12.52907 | 36908 ft | 477 kts | 41° |
| 2026-05-05 06:10 | 52.10950 | 12.60195 | 36920 ft | 477 kts | 41° |
| 2026-05-05 06:11 | 52.15832 | 12.67501 | 36919 ft | 477 kts | 41° |
| 2026-05-05 06:11 | 52.20713 | 12.74811 | 36900 ft | 476 kts | 41° |
| 2026-05-05 06:12 | 52.25590 | 12.82124 | 36897 ft | 476 kts | 41° |
| 2026-05-05 06:12 | 52.30459 | 12.89472 | 36915 ft | 477 kts | 41° |
| 2026-05-05 06:13 | 52.35327 | 12.96837 | 36906 ft | 477 kts | 41° |
| 2026-05-05 06:13 | 52.40192 | 13.04220 | 36903 ft | 477 kts | 41° |
| 2026-05-05 06:14 | 52.45043 | 13.11617 | 36925 ft | 476 kts | 41° |
| 2026-05-05 06:14 | 52.49859 | 13.18975 | 36918 ft | 476 kts | 41° |
| 2026-05-05 06:15 | 52.54702 | 13.26390 | 36936 ft | 476 kts | 41° |
| 2026-05-05 06:15 | 52.59536 | 13.33814 | 36932 ft | 476 kts | 41° |
| 2026-05-05 06:16 | 52.64360 | 13.41267 | 36933 ft | 476 kts | 41° |
| 2026-05-05 06:16 | 52.69185 | 13.48725 | 36930 ft | 475 kts | 41° |
| 2026-05-05 06:17 | 52.74002 | 13.56189 | 36931 ft | 475 kts | 41° |
| 2026-05-05 06:17 | 52.78810 | 13.63678 | 36932 ft | 475 kts | 41° |
| 2026-05-05 06:18 | 52.83614 | 13.71182 | 36931 ft | 475 kts | 41° |
| 2026-05-05 06:18 | 52.88416 | 13.78704 | 36922 ft | 475 kts | 41° |
| 2026-05-05 06:19 | 52.93207 | 13.86229 | 36951 ft | 474 kts | 41° |
| 2026-05-05 06:19 | 52.97983 | 13.93763 | 36940 ft | 473 kts | 42° |
| 2026-05-05 06:20 | 53.02750 | 14.01312 | 36938 ft | 473 kts | 42° |
| 2026-05-05 06:20 | 53.07509 | 14.08865 | 36932 ft | 473 kts | 42° |
| 2026-05-05 06:21 | 53.12267 | 14.16421 | 36933 ft | 473 kts | 42° |
| 2026-05-05 06:21 | 53.17017 | 14.24006 | 36944 ft | 473 kts | 42° |
| 2026-05-05 06:22 | 53.21755 | 14.31618 | 36937 ft | 473 kts | 42° |
| 2026-05-05 06:22 | 53.26497 | 14.39240 | 36935 ft | 473 kts | 40° |
| 2026-05-05 06:23 | 53.31820 | 14.45601 | 36939 ft | 470 kts | 30° |
| 2026-05-05 06:23 | 53.37267 | 14.51514 | 36964 ft | 470 kts | 30° |
| 2026-05-05 06:24 | 53.42741 | 14.57498 | 36927 ft | 470 kts | 31° |
| 2026-05-05 06:24 | 53.48216 | 14.63502 | 36937 ft | 470 kts | 31° |
| 2026-05-05 06:25 | 53.53688 | 14.69516 | 36942 ft | 470 kts | 31° |
| 2026-05-05 06:25 | 53.59154 | 14.75568 | 36969 ft | 470 kts | 31° |
| 2026-05-05 06:26 | 53.64621 | 14.81632 | 36964 ft | 470 kts | 31° |
| 2026-05-05 06:26 | 53.70093 | 14.87693 | 36961 ft | 471 kts | 31° |
| 2026-05-05 06:27 | 53.78295 | 14.96824 | 36960 ft | 471 kts | 31° |
| 2026-05-05 06:28 | 53.83717 | 15.02899 | 36975 ft | 471 kts | 31° |
| 2026-05-05 06:28 | 53.89174 | 15.09035 | 36963 ft | 470 kts | 31° |
| 2026-05-05 06:29 | 53.94624 | 15.15169 | 36958 ft | 470 kts | 31° |
| 2026-05-05 06:29 | 54.00075 | 15.21321 | 36953 ft | 470 kts | 31° |
| 2026-05-05 06:30 | 54.05519 | 15.27482 | 36959 ft | 470 kts | 31° |
| 2026-05-05 06:30 | 54.10964 | 15.33670 | 36943 ft | 471 kts | 31° |
| 2026-05-05 06:31 | 54.16413 | 15.39893 | 36944 ft | 472 kts | 31° |
| 2026-05-05 06:31 | 54.21866 | 15.46139 | 36943 ft | 472 kts | 31° |
| 2026-05-05 06:32 | 54.27317 | 15.52394 | 36968 ft | 472 kts | 31° |
| 2026-05-05 06:32 | 54.32775 | 15.58674 | 36945 ft | 473 kts | 31° |
| 2026-05-05 06:33 | 54.38230 | 15.64971 | 36943 ft | 473 kts | 31° |
| 2026-05-05 06:33 | 54.43647 | 15.71254 | 36942 ft | 474 kts | 31° |
| 2026-05-05 06:34 | 54.48954 | 15.77427 | 36941 ft | 474 kts | 31° |
| 2026-05-05 06:34 | 54.54375 | 15.83764 | 36958 ft | 475 kts | 31° |
| 2026-05-05 06:35 | 54.59841 | 15.90169 | 36956 ft | 475 kts | 31° |
| 2026-05-05 06:35 | 54.65301 | 15.96581 | 36955 ft | 475 kts | 31° |
| 2026-05-05 06:36 | 54.70764 | 16.03024 | 36956 ft | 475 kts | 31° |
| 2026-05-05 06:36 | 54.76225 | 16.09484 | 36972 ft | 475 kts | 31° |
| 2026-05-05 06:37 | 54.81688 | 16.15946 | 36970 ft | 475 kts | 31° |
| 2026-05-05 06:37 | 54.87140 | 16.22438 | 36965 ft | 475 kts | 31° |
| 2026-05-05 06:38 | 54.92582 | 16.28944 | 36962 ft | 475 kts | 31° |
| 2026-05-05 06:38 | 54.98026 | 16.35466 | 36960 ft | 475 kts | 31° |
| 2026-05-05 06:39 | 55.03433 | 16.41955 | 36956 ft | 475 kts | 31° |
| 2026-05-05 06:39 | 55.08872 | 16.48505 | 36956 ft | 475 kts | 31° |
| 2026-05-05 06:40 | 55.14299 | 16.55085 | 36955 ft | 475 kts | 31° |
| 2026-05-05 06:40 | 55.19727 | 16.61685 | 36980 ft | 475 kts | 31° |
| 2026-05-05 06:41 | 55.25151 | 16.68298 | 36969 ft | 475 kts | 31° |
| 2026-05-05 06:41 | 55.30569 | 16.74923 | 36964 ft | 474 kts | 31° |
| 2026-05-05 06:42 | 55.35978 | 16.81556 | 36955 ft | 474 kts | 31° |
| 2026-05-05 06:42 | 55.41387 | 16.88213 | 36968 ft | 474 kts | 31° |
| 2026-05-05 06:43 | 55.46793 | 16.94891 | 36960 ft | 475 kts | 32° |
| 2026-05-05 06:43 | 55.52199 | 17.01598 | 36957 ft | 475 kts | 32° |
| 2026-05-05 06:44 | 55.57567 | 17.08272 | 36948 ft | 475 kts | 32° |
| 2026-05-05 06:44 | 55.62973 | 17.15009 | 36947 ft | 475 kts | 31° |
| 2026-05-05 06:45 | 55.68662 | 17.20854 | 36951 ft | 473 kts | 25° |
| 2026-05-05 06:45 | 55.74409 | 17.26551 | 36933 ft | 473 kts | 25° |
| 2026-05-05 06:46 | 55.80151 | 17.32289 | 36929 ft | 474 kts | 25° |
| 2026-05-05 06:46 | 55.84969 | 17.37118 | 36925 ft | 474 kts | 25° |
| 2026-05-05 06:47 | 55.91652 | 17.43823 | 36953 ft | 474 kts | 25° |
| 2026-05-05 06:47 | 55.96427 | 17.48629 | 36942 ft | 474 kts | 25° |
| 2026-05-05 06:48 | 56.02169 | 17.54421 | 36933 ft | 474 kts | 25° |
| 2026-05-05 06:48 | 56.07904 | 17.60230 | 36934 ft | 473 kts | 25° |
| 2026-05-05 06:49 | 56.13633 | 17.66050 | 36950 ft | 473 kts | 25° |
| 2026-05-05 06:49 | 56.19348 | 17.71876 | 36936 ft | 472 kts | 25° |
| 2026-05-05 06:50 | 56.25059 | 17.77724 | 36930 ft | 472 kts | 25° |
| 2026-05-05 06:50 | 56.30762 | 17.83587 | 36926 ft | 472 kts | 25° |
| 2026-05-05 06:51 | 56.36463 | 17.89464 | 36952 ft | 472 kts | 25° |
| 2026-05-05 06:51 | 56.42155 | 17.95352 | 36931 ft | 472 kts | 26° |
| 2026-05-05 06:52 | 56.47849 | 18.01263 | 36924 ft | 472 kts | 26° |
| 2026-05-05 06:52 | 56.53539 | 18.07189 | 36916 ft | 472 kts | 26° |
| 2026-05-05 06:53 | 56.59189 | 18.13080 | 36911 ft | 472 kts | 26° |
| 2026-05-05 06:53 | 56.64874 | 18.19050 | 36928 ft | 472 kts | 26° |
| 2026-05-05 06:54 | 56.70555 | 18.25038 | 36915 ft | 472 kts | 26° |
| 2026-05-05 06:54 | 56.76238 | 18.31022 | 36913 ft | 472 kts | 26° |
| 2026-05-05 06:55 | 56.81911 | 18.37031 | 36910 ft | 472 kts | 26° |
| 2026-05-05 06:55 | 56.87585 | 18.43064 | 36921 ft | 472 kts | 26° |
| 2026-05-05 06:56 | 56.93254 | 18.49120 | 36913 ft | 472 kts | 26° |
| 2026-05-05 06:56 | 56.98920 | 18.55182 | 36888 ft | 472 kts | 26° |
| 2026-05-05 06:57 | 57.04586 | 18.61264 | 36893 ft | 472 kts | 26° |
| 2026-05-05 06:57 | 57.10248 | 18.67380 | 36919 ft | 472 kts | 26° |
| 2026-05-05 06:58 | 57.15911 | 18.73509 | 36905 ft | 473 kts | 26° |
| 2026-05-05 06:58 | 57.21542 | 18.79618 | 36891 ft | 473 kts | 26° |
| 2026-05-05 06:59 | 57.27205 | 18.85800 | 36886 ft | 473 kts | 26° |
| 2026-05-05 06:59 | 57.32858 | 18.92007 | 36878 ft | 473 kts | 26° |
| 2026-05-05 07:00 | 57.38518 | 18.98223 | 36868 ft | 473 kts | 26° |
| 2026-05-05 07:00 | 57.44179 | 19.04453 | 36869 ft | 473 kts | 26° |
| 2026-05-05 07:01 | 57.49837 | 19.10709 | 36873 ft | 473 kts | 26° |
| 2026-05-05 07:01 | 57.55489 | 19.16994 | 36873 ft | 473 kts | 26° |
| 2026-05-05 07:02 | 57.61141 | 19.23284 | 36884 ft | 473 kts | 26° |
| 2026-05-05 07:02 | 57.66792 | 19.29602 | 36875 ft | 474 kts | 26° |
| 2026-05-05 07:03 | 57.72441 | 19.35944 | 36863 ft | 474 kts | 26° |
| 2026-05-05 07:03 | 57.78086 | 19.42315 | 36851 ft | 474 kts | 26° |
| 2026-05-05 07:04 | 57.83727 | 19.48695 | 36876 ft | 474 kts | 26° |
| 2026-05-05 07:04 | 57.89372 | 19.55089 | 36839 ft | 474 kts | 26° |
| 2026-05-05 07:05 | 57.95014 | 19.61515 | 36833 ft | 474 kts | 26° |
| 2026-05-05 07:05 | 58.00658 | 19.67984 | 36826 ft | 475 kts | 26° |
| 2026-05-05 07:06 | 58.06307 | 19.74472 | 36830 ft | 475 kts | 26° |
| 2026-05-05 07:06 | 58.11959 | 19.80987 | 36836 ft | 476 kts | 26° |
| 2026-05-05 07:07 | 58.17613 | 19.87527 | 36824 ft | 477 kts | 26° |
| 2026-05-05 07:07 | 58.23277 | 19.94100 | 36821 ft | 478 kts | 26° |
| 2026-05-05 07:08 | 58.28944 | 20.00705 | 36815 ft | 478 kts | 27° |
| 2026-05-05 07:08 | 58.34572 | 20.07287 | 36843 ft | 479 kts | 26° |
| 2026-05-05 07:09 | 58.40248 | 20.13942 | 36819 ft | 479 kts | 26° |
| 2026-05-05 07:09 | 58.45925 | 20.20635 | 36815 ft | 480 kts | 27° |
| 2026-05-05 07:10 | 58.51598 | 20.27370 | 36811 ft | 480 kts | 27° |
| 2026-05-05 07:10 | 58.57281 | 20.34114 | 36848 ft | 481 kts | 26° |
| 2026-05-05 07:11 | 58.62976 | 20.40895 | 36823 ft | 482 kts | 26° |
| 2026-05-05 07:11 | 58.68677 | 20.47710 | 36812 ft | 483 kts | 26° |
| 2026-05-05 07:12 | 58.74378 | 20.54555 | 36815 ft | 484 kts | 26° |
| 2026-05-05 07:12 | 58.80086 | 20.61431 | 36809 ft | 484 kts | 27° |
| 2026-05-05 07:13 | 58.85756 | 20.68299 | 36797 ft | 484 kts | 27° |
| 2026-05-05 07:13 | 58.91495 | 20.75296 | 36811 ft | 484 kts | 27° |
| 2026-05-05 07:14 | 58.97146 | 20.82231 | 36813 ft | 484 kts | 27° |
| 2026-05-05 07:14 | 59.02738 | 20.89544 | 36801 ft | 489 kts | 36° |
| 2026-05-05 07:15 | 59.07277 | 20.99477 | 36815 ft | 498 kts | 55° |
| 2026-05-05 07:15 | 59.10908 | 21.10979 | 36798 ft | 499 kts | 56° |
| 2026-05-05 07:16 | 59.14522 | 21.22528 | 36783 ft | 500 kts | 56° |
| 2026-05-05 07:16 | 59.18133 | 21.34117 | 36782 ft | 500 kts | 57° |
| 2026-05-05 07:17 | 59.21730 | 21.45728 | 36776 ft | 500 kts | 57° |
| 2026-05-05 07:17 | 59.25299 | 21.57295 | 36808 ft | 500 kts | 57° |
| 2026-05-05 07:18 | 59.28882 | 21.68963 | 36783 ft | 501 kts | 57° |
| 2026-05-05 07:18 | 59.32450 | 21.80669 | 36747 ft | 501 kts | 57° |
| 2026-05-05 07:19 | 59.36009 | 21.92415 | 36764 ft | 501 kts | 57° |
| 2026-05-05 07:19 | 59.39571 | 22.04169 | 36770 ft | 501 kts | 57° |
| 2026-05-05 07:20 | 59.43121 | 22.15942 | 36767 ft | 501 kts | 57° |
| 2026-05-05 07:20 | 59.46667 | 22.27774 | 36242 ft | 503 kts | 57° |
| 2026-05-05 07:20 | 59.48434 | 22.33707 | 35651 ft | 502 kts | 58° |
| 2026-05-05 07:21 | 59.50193 | 22.39636 | 35018 ft | 502 kts | 58° |
| 2026-05-05 07:21 | 59.51953 | 22.45569 | 34412 ft | 502 kts | 58° |
| 2026-05-05 07:21 | 59.53707 | 22.51502 | 33858 ft | 501 kts | 58° |
| 2026-05-05 07:21 | 59.55433 | 22.57351 | 33228 ft | 500 kts | 58° |
| 2026-05-05 07:22 | 59.57198 | 22.63350 | 32656 ft | 497 kts | 58° |
| 2026-05-05 07:22 | 59.58903 | 22.69160 | 32098 ft | 495 kts | 58° |
| 2026-05-05 07:22 | 59.60621 | 22.75028 | 31479 ft | 492 kts | 58° |
| 2026-05-05 07:22 | 59.62324 | 22.80867 | 30974 ft | 489 kts | 58° |
| 2026-05-05 07:23 | 59.64014 | 22.86679 | 30420 ft | 487 kts | 58° |
| 2026-05-05 07:23 | 59.65692 | 22.92469 | 29882 ft | 484 kts | 58° |
| 2026-05-05 07:23 | 59.67359 | 22.98240 | 29275 ft | 482 kts | 58° |
| 2026-05-05 07:23 | 59.69014 | 23.03968 | 28751 ft | 477 kts | 58° |
| 2026-05-05 07:24 | 59.70653 | 23.09644 | 28226 ft | 473 kts | 58° |
| 2026-05-05 07:24 | 59.72276 | 23.15277 | 27699 ft | 470 kts | 58° |
| 2026-05-05 07:24 | 59.73889 | 23.20883 | 27197 ft | 466 kts | 58° |
| 2026-05-05 07:24 | 59.75488 | 23.26457 | 26689 ft | 464 kts | 58° |
| 2026-05-05 07:25 | 59.77074 | 23.31997 | 26200 ft | 461 kts | 58° |
| 2026-05-05 07:25 | 59.78651 | 23.37519 | 25727 ft | 459 kts | 58° |
| 2026-05-05 07:25 | 59.80217 | 23.43019 | 25261 ft | 456 kts | 58° |
| 2026-05-05 07:25 | 59.81773 | 23.48499 | 24840 ft | 454 kts | 58° |
| 2026-05-05 07:26 | 59.83317 | 23.53966 | 24329 ft | 453 kts | 58° |
| 2026-05-05 07:26 | 59.84856 | 23.59427 | 23882 ft | 451 kts | 58° |
| 2026-05-05 07:26 | 59.86384 | 23.64855 | 23425 ft | 449 kts | 58° |
| 2026-05-05 07:26 | 59.87919 | 23.70247 | 22772 ft | 448 kts | 56° |
| 2026-05-05 07:27 | 59.89893 | 23.75104 | 21431 ft | 458 kts | 39° |
| 2026-05-05 07:27 | 59.92214 | 23.79499 | 20781 ft | 458 kts | 38° |
| 2026-05-05 07:27 | 59.94498 | 23.83814 | 20326 ft | 448 kts | 38° |
| 2026-05-05 07:27 | 59.96747 | 23.88077 | 19708 ft | 443 kts | 38° |
| 2026-05-05 07:28 | 59.98962 | 23.92288 | 19046 ft | 437 kts | 38° |
| 2026-05-05 07:28 | 60.01150 | 23.96464 | 18346 ft | 433 kts | 38° |
| 2026-05-05 07:28 | 60.03285 | 24.00561 | 17616 ft | 428 kts | 38° |
| 2026-05-05 07:28 | 60.05418 | 24.04671 | 16857 ft | 424 kts | 39° |
| 2026-05-05 07:29 | 60.07557 | 24.08796 | 16095 ft | 419 kts | 39° |
| 2026-05-05 07:29 | 60.09619 | 24.12773 | 15374 ft | 414 kts | 39° |
| 2026-05-05 07:29 | 60.11679 | 24.16751 | 14671 ft | 409 kts | 38° |
| 2026-05-05 07:29 | 60.13715 | 24.20697 | 13985 ft | 404 kts | 39° |
| 2026-05-05 07:30 | 60.15717 | 24.24581 | 13420 ft | 396 kts | 38° |
| 2026-05-05 07:30 | 60.19625 | 24.32190 | 12172 ft | 383 kts | 39° |
| 2026-05-05 07:30 | 60.21515 | 24.35881 | 11624 ft | 375 kts | 39° |
| 2026-05-05 07:31 | 60.23368 | 24.39501 | 11079 ft | 368 kts | 39° |
| 2026-05-05 07:31 | 60.25183 | 24.43058 | 10614 ft | 360 kts | 39° |
| 2026-05-05 07:31 | 60.26951 | 24.46535 | 10184 ft | 352 kts | 39° |
| 2026-05-05 07:31 | 60.28687 | 24.49949 | 9733 ft | 345 kts | 39° |
| 2026-05-05 07:32 | 60.30389 | 24.53296 | 9241 ft | 338 kts | 39° |
| 2026-05-05 07:32 | 60.32056 | 24.56574 | 8738 ft | 331 kts | 39° |
| 2026-05-05 07:32 | 60.33686 | 24.59779 | 8231 ft | 324 kts | 39° |
| 2026-05-05 07:32 | 60.35283 | 24.62920 | 7687 ft | 318 kts | 39° |
| 2026-05-05 07:33 | 60.37005 | 24.65519 | 7157 ft | 299 kts | 16° |
| 2026-05-05 07:33 | 60.38916 | 24.66620 | 6767 ft | 278 kts | 2° |
| 2026-05-05 07:33 | 60.40781 | 24.66927 | 6263 ft | 260 kts | 345° |
| 2026-05-05 07:33 | 60.42543 | 24.66453 | 5747 ft | 252 kts | 341° |
| 2026-05-05 07:34 | 60.44233 | 24.65881 | 5219 ft | 247 kts | 341° |
| 2026-05-05 07:34 | 60.45950 | 24.65718 | 4709 ft | 254 kts | 4° |
| 2026-05-05 07:34 | 60.47544 | 24.67298 | 4373 ft | 261 kts | 37° |
| 2026-05-05 07:34 | 60.48566 | 24.70331 | 4101 ft | 263 kts | 70° |
| 2026-05-05 07:35 | 60.48860 | 24.73932 | 3842 ft | 258 kts | 94° |
| 2026-05-05 07:35 | 60.48506 | 24.77403 | 3649 ft | 246 kts | 116° |
| 2026-05-05 07:35 | 60.47670 | 24.80320 | 3456 ft | 235 kts | 136° |
| 2026-05-05 07:35 | 60.46492 | 24.82486 | 3181 ft | 223 kts | 154° |
| 2026-05-05 07:36 | 60.45152 | 24.83942 | 2926 ft | 215 kts | 160° |
| 2026-05-05 07:36 | 60.43841 | 24.85302 | 2599 ft | 208 kts | 160° |
| 2026-05-05 07:36 | 60.42588 | 24.86601 | 2328 ft | 197 kts | 160° |
| 2026-05-05 07:36 | 60.41397 | 24.87833 | 2064 ft | 187 kts | 160° |
| 2026-05-05 07:37 | 60.40268 | 24.88999 | 1813 ft | 177 kts | 161° |
| 2026-05-05 07:37 | 60.39194 | 24.90107 | 1567 ft | 170 kts | 162° |
| 2026-05-05 07:37 | 60.38182 | 24.91154 | 1348 ft | 155 kts | 161° |
| 2026-05-05 07:37 | 60.37255 | 24.92110 | 1137 ft | 145 kts | 162° |
| 2026-05-05 07:38 | 60.36371 | 24.93017 | 938 ft | 140 kts | 164° |
| 2026-05-05 07:38 | 60.35513 | 24.93900 | 753 ft | 137 kts | 164° |
| 2026-05-05 07:38 | 60.34679 | 24.94757 | 561 ft | 132 kts | 163° |
| 2026-05-05 07:38 | 60.33866 | 24.95592 | 384 ft | 130 kts | 163° |
| 2026-05-05 07:39 | 60.33057 | 24.96429 | 221 ft | 130 kts | 161° |
| 2026-05-05 07:39 | 60.32316 | 24.97179 | 159 ft | 102 kts | 153° |
| 2026-05-05 07:39 | 60.31840 | 24.97673 | 152 ft | 50 kts | 153° |
| 2026-05-05 07:39 | 60.31691 | 24.97672 | 153 ft | 18 kts | 226° |
| 2026-05-05 07:40 | 60.31680 | 24.97499 | 159 ft | 11 kts | 315° |
| 2026-05-05 07:40 | 60.31747 | 24.97425 | 160 ft | 11 kts | 332° |
| 2026-05-05 07:40 | 60.31818 | 24.97352 | 161 ft | 11 kts | 333° |
| 2026-05-05 07:40 | 60.31887 | 24.97280 | 162 ft | 12 kts | 333° |
| 2026-05-05 07:41 | 60.31969 | 24.97196 | 165 ft | 14 kts | 332° |
| 2026-05-05 07:41 | 60.32060 | 24.97102 | 166 ft | 16 kts | 333° |
| 2026-05-05 07:41 | 60.32127 | 24.97030 | 166 ft | 16 kts | 324° |
| 2026-05-05 07:41 | 60.32101 | 24.96862 | 167 ft | 15 kts | 224° |
| 2026-05-05 07:42 | 60.32031 | 24.96710 | 167 ft | 14 kts | 227° |
| 2026-05-05 07:42 | 60.31983 | 24.96621 | 167 ft | 7 kts | 191° |
| 2026-05-05 07:42 | 60.31951 | 24.96669 | 167 ft | 4 kts | 138° |
| 2026-05-05 07:42 | 60.31941 | 24.96688 | 167 ft | 0 kts | 137° |